Plainview, TX (79072)

3:33 PM CDT on March 25, 2017 (GMT -0500)
Oasis - 79072 | | Change Station
Active Advisory: Fire Weather Watch

Elev 3386 ft 34.19 °N, 101.77 °W | Updated 5 seconds ago

Clear
Clear
77.4 °F
Feels Like 77 °F
N
7.0
Wind Variable Wind from WNW

Today
High -- | Low -- °F
--% Chance of Precip.
Yesterday
High -- | Low -- °F
Precip. -- in
Pressure 29.98 in
Visibility 10.0 miles
Clouds Clear
Heat Index 77 °F
Dew Point 36 °F
Humidity 22%
Rainfall 0.00 in
Snow Depth Not available.
7:43 AM 8:02 PM
Waning Crescent, 7% visible
METAR KPVW 252015Z AUTO 29006KT 10SM CLR 19/00 A2998 RMK AO2 T01921001
Pressure 29.98 in
Visibility 10.0 miles
Clouds Clear
Heat Index 77 °F
Dew Point 36 °F
Humidity 22%
Rainfall 0.00 in
Snow Depth Not available.
7:43 AM 8:02 PM
Waning Crescent, 7% visible
METAR KPVW 252015Z AUTO 29006KT 10SM CLR 19/00 A2998 RMK AO2 T01921001

Get Your Daily Forecast Email!

Thanks for signing up!

Be on the lookout for a verification email in your inbox.

You'll start receiving severe weather alerts in your inbox..

×

10-Day Weather Forecast

Almanac

Astronomy

Mar. 25, 2017 Rise Set
Actual Time
Civil Twilight
Nautical Twilight
Astronomical Twilight
Moon
Length of Visible Light
Length of Day
Tomorrow will be .
, % of the Moon is Illuminated

Today's Extremes

State Highs State Lows

Community

WunderPhotos

Upload Photos

1,962,540 photos uploaded!

WunderBlog® & News

Nearby

Air Quality

  Air Quality AQ Index Pollutant
Not available.

Snow Depth

Station Depth Elevation

Earthquake Activity

City Distance Mag. Time & Date
Minimum magnitude displayed is 2.5.

Earthquake Activity

City Distance Mag. Time & Date
Minimum magnitude displayed is 2.5.

Coastal Water Temperatures

Place Temperature

Stations

Nearby Weather Stations

Station Location Temp. Windchill Dew Point Humidity Wind Precip. Elev Updated Type
                   

Watches & Warnings

Fire Weather Watch
Issued: 2:59 PM CDT Mar. 25, 2017 – National Weather Service

... Fire Weather Watch remains in effect on Sunday from 1 PM until
8 PM for the South Plains and adjacent rolling plains for 20-foot
winds of 20 mph or more... relative humidities of 15 % or less and
a very high fire danger...

* wind... westerly at 20 to 30 mph.

* Humidity... 10 to 15 %.

* Fuels... extremely dry.

* Impacts... any fires that develop can spread rapidly. Outdoor
burning is discouraged.

Precautionary/preparedness actions...

A Fire Weather Watch means that critical fire weather conditions
are forecast to occur. Monitor later forecasts and possible red
flag warnings.